createdAt,value
2022-09-03T00:01:07.598Z,19.27
2022-09-03T00:03:39.286Z,19.19
2022-09-03T00:06:13.002Z,18.57
2022-09-03T00:09:00.193Z,18.98
2022-09-03T00:11:31.570Z,19.18
2022-09-03T00:14:04.022Z,18.67
2022-09-03T00:16:41.081Z,18.02
2022-09-03T00:19:08.074Z,19.11
2022-09-03T00:21:40.104Z,18.24
2022-09-03T00:24:14.103Z,18.71
2022-09-03T00:26:45.122Z,18.72
2022-09-03T00:29:15.888Z,18.79
2022-09-03T00:31:46.043Z,17.91
2022-09-03T00:34:20.209Z,18.12
2022-09-03T00:36:47.304Z,18.37
2022-09-03T00:39:18.543Z,18.86
2022-09-03T00:42:09.002Z,17.94
2022-09-03T00:44:58.433Z,18.77
2022-09-03T00:47:34.570Z,18.74
2022-09-03T00:50:08.543Z,18.74
2022-09-03T00:52:45.644Z,18.62
2022-09-03T00:55:38.879Z,18.03
2022-09-03T00:58:26.098Z,17.59
2022-09-03T01:00:54.583Z,18.05
2022-09-03T01:03:32.695Z,18.55
2022-09-03T01:06:17.069Z,18.25
2022-09-03T01:09:17.368Z,17.96
2022-09-03T01:11:55.169Z,17.41
2022-09-03T01:14:34.871Z,18.20
2022-09-03T01:17:08.965Z,18.19
2022-09-03T01:20:01.938Z,17.93
2022-09-03T01:23:11.880Z,17.91
2022-09-03T01:25:53.529Z,17.37
2022-09-03T01:28:40.963Z,18.03
2022-09-03T01:31:24.182Z,18.12
2022-09-03T01:34:01.157Z,17.97
2022-09-03T01:36:37.522Z,17.81
2022-09-03T01:39:06.393Z,18.01
2022-09-03T01:41:48.114Z,17.95
2022-09-03T01:44:24.231Z,16.97
2022-09-03T01:46:55.502Z,17.97
2022-09-03T01:49:28.588Z,16.99
2022-09-03T01:52:03.065Z,17.69
2022-09-03T01:54:51.873Z,18.17
2022-09-03T01:57:37.538Z,18.13
2022-09-03T02:00:08.590Z,17.51
2022-09-03T02:02:38.410Z,18.09
2022-09-03T02:05:08.791Z,17.39
2022-09-03T02:07:38.271Z,18.07
2022-09-03T02:10:08.333Z,17.06
2022-09-03T02:12:38.666Z,16.97
2022-09-03T02:15:12.823Z,17.99
2022-09-03T02:17:41.899Z,17.35
2022-09-03T02:20:12.527Z,17.53
2022-09-03T02:22:41.037Z,17.01
2022-09-03T02:25:09.201Z,17.67
2022-09-03T02:27:36.027Z,18.10
2022-09-03T02:30:04.545Z,18.10
2022-09-03T02:32:33.393Z,16.99
2022-09-03T02:35:04.865Z,17.56
2022-09-03T02:37:31.678Z,17.97
2022-09-03T02:40:02.247Z,16.92
2022-09-03T02:42:29.447Z,18.01
2022-09-03T02:45:04.194Z,17.93
2022-09-03T02:47:34.396Z,17.56
2022-09-03T02:50:01.448Z,18.01
2022-09-03T02:52:28.809Z,17.60
2022-09-03T02:54:55.693Z,17.52
2022-09-03T02:57:27.322Z,17.01
2022-09-03T02:59:56.102Z,17.64
2022-09-03T03:02:22.898Z,17.51
2022-09-03T03:04:54.599Z,17.97
2022-09-03T03:07:22.492Z,16.88
2022-09-03T03:09:49.252Z,17.95
2022-09-03T03:12:16.206Z,17.92
2022-09-03T03:14:43.710Z,17.06
2022-09-03T03:17:10.463Z,17.78
2022-09-03T03:19:38.726Z,17.81
2022-09-03T03:22:09.314Z,17.03
2022-09-03T03:24:36.382Z,16.72
2022-09-03T03:27:03.714Z,17.51
2022-09-03T03:29:30.548Z,17.79
2022-09-03T03:31:57.464Z,16.70
2022-09-03T03:34:24.260Z,16.61
2022-09-03T03:36:51.058Z,17.44
2022-09-03T03:39:19.464Z,17.63
2022-09-03T03:41:46.590Z,17.46
2022-09-03T03:44:13.377Z,17.21
2022-09-03T03:46:41.654Z,17.62
2022-09-03T03:49:09.461Z,17.62
2022-09-03T03:51:37.484Z,17.68
2022-09-03T03:54:05.602Z,16.98
2022-09-03T03:56:36.271Z,17.08
2022-09-03T03:59:04.146Z,16.63
2022-09-03T04:01:31.119Z,17.29
2022-09-03T04:04:00.616Z,16.54
2022-09-03T04:06:28.334Z,17.29
2022-09-03T04:08:56.773Z,17.45
2022-09-03T04:11:24.897Z,16.39
2022-09-03T04:13:55.490Z,17.29
2022-09-03T04:16:23.814Z,16.41
2022-09-03T04:18:52.688Z,16.33
2022-09-03T04:21:21.308Z,16.44
2022-09-03T04:23:50.402Z,16.32
2022-09-03T04:26:19.581Z,17.12
2022-09-03T04:28:46.931Z,16.66
2022-09-03T04:31:17.857Z,16.98
2022-09-03T04:33:45.050Z,16.47
2022-09-03T04:36:13.669Z,16.35
2022-09-03T04:38:43.161Z,17.19
2022-09-03T04:41:15.044Z,16.47
2022-09-03T04:43:42.331Z,16.71
2022-09-03T04:46:16.393Z,16.95
2022-09-03T04:48:49.116Z,16.24
2022-09-03T04:51:18.760Z,16.32
2022-09-03T04:53:49.066Z,17.12
2022-09-03T04:56:17.653Z,16.45
2022-09-03T04:58:45.721Z,16.82
2022-09-03T05:01:16.743Z,17.14
2022-09-03T05:03:43.883Z,17.10
2022-09-03T05:06:12.091Z,16.17
2022-09-03T05:08:39.049Z,17.08
2022-09-03T05:11:07.391Z,16.83
2022-09-03T05:13:36.241Z,16.46
2022-09-03T05:16:05.689Z,16.05
2022-09-03T05:18:32.782Z,16.73
2022-09-03T05:21:01.962Z,16.01
2022-09-03T05:23:33.234Z,16.43
2022-09-03T05:26:06.222Z,16.96
2022-09-03T05:28:38.607Z,16.50
2022-09-03T05:31:10.883Z,15.82
2022-09-03T05:33:40.281Z,16.19
2022-09-03T05:36:09.828Z,16.78
2022-09-03T05:38:38.180Z,16.75
2022-09-03T05:41:06.935Z,15.97
2022-09-03T05:43:34.423Z,16.19
2022-09-03T05:46:03.327Z,16.43
2022-09-03T05:48:30.937Z,16.81
2022-09-03T05:51:04.768Z,16.69
2022-09-03T05:53:34.517Z,15.67
2022-09-03T05:56:06.287Z,15.67
2022-09-03T05:58:34.489Z,16.28
2022-09-03T06:01:09.927Z,16.12
2022-09-03T06:03:37.996Z,15.63
2022-09-03T06:06:05.557Z,16.77
2022-09-03T06:08:32.715Z,15.77
2022-09-03T06:11:00.561Z,16.35
2022-09-03T06:13:36.886Z,16.70
2022-09-03T06:16:11.313Z,16.06
2022-09-03T06:18:38.255Z,15.76
2022-09-03T06:21:07.676Z,15.96
2022-09-03T06:23:36.439Z,16.86
2022-09-03T06:26:06.050Z,16.83
2022-09-03T06:28:43.997Z,16.75
2022-09-03T06:31:12.509Z,16.89
2022-09-03T06:33:41.331Z,16.98
2022-09-03T06:36:10.903Z,17.07
2022-09-03T06:38:38.682Z,16.82
2022-09-03T06:41:07.780Z,16.22
2022-09-03T06:43:37.548Z,16.26
2022-09-03T06:46:07.047Z,17.11
2022-09-03T06:48:35.762Z,17.11
2022-09-03T06:51:04.231Z,17.10
2022-09-03T06:53:34.218Z,17.06
2022-09-03T06:56:10.951Z,17.00
2022-09-03T06:58:42.781Z,17.19
2022-09-03T07:01:14.149Z,17.05
2022-09-03T07:03:43.255Z,16.04
2022-09-03T07:06:12.035Z,17.27
2022-09-03T07:08:38.986Z,16.99
2022-09-03T07:11:08.005Z,16.23
2022-09-03T07:13:35.113Z,17.22
2022-09-03T07:16:04.909Z,17.26
2022-09-03T07:18:32.775Z,16.61
2022-09-03T07:21:00.097Z,16.64
2022-09-03T07:23:27.354Z,17.27
2022-09-03T07:25:55.658Z,17.59
2022-09-03T07:28:22.682Z,17.50
2022-09-03T07:30:49.345Z,17.56
2022-09-03T07:33:17.943Z,17.68
2022-09-03T07:35:45.075Z,17.77
2022-09-03T07:38:12.324Z,17.68
2022-09-03T07:40:39.312Z,17.89
2022-09-03T07:43:05.984Z,17.96
2022-09-03T07:45:34.306Z,17.89
2022-09-03T07:48:01.163Z,18.08
2022-09-03T07:50:29.253Z,18.15
2022-09-03T07:52:56.863Z,18.17
2022-09-03T07:55:25.274Z,18.14
2022-09-03T07:57:56.615Z,18.16
2022-09-03T08:00:23.402Z,18.29
2022-09-03T08:02:52.215Z,18.38
2022-09-03T08:05:23.168Z,18.36
2022-09-03T08:07:53.581Z,18.16
2022-09-03T08:10:22.672Z,18.50
2022-09-03T08:12:53.140Z,18.59
2022-09-03T08:15:20.316Z,18.71
2022-09-03T08:17:46.995Z,18.73
2022-09-03T08:20:13.953Z,18.82
2022-09-03T08:22:40.905Z,18.90
2022-09-03T08:25:09.795Z,18.79
2022-09-03T08:27:43.251Z,18.98
2022-09-03T08:30:12.182Z,19.01
2022-09-03T08:32:39.311Z,18.88
2022-09-03T08:35:07.412Z,19.33
2022-09-03T08:37:34.297Z,19.45
2022-09-03T08:40:02.852Z,19.08
2022-09-03T08:42:48.521Z,19.65
2022-09-03T08:45:19.100Z,19.30
2022-09-03T08:47:49.549Z,19.06
2022-09-03T08:50:25.294Z,19.91
2022-09-03T08:52:55.617Z,19.95
2022-09-03T08:55:27.243Z,20.15
2022-09-03T08:58:02.904Z,20.16
2022-09-03T09:00:42.884Z,20.29
2022-09-03T09:03:29.783Z,20.42
2022-09-03T09:06:07.966Z,20.46
2022-09-03T09:08:47.412Z,20.65
2022-09-03T09:11:25.424Z,20.78
2022-09-03T09:14:00.456Z,20.74
2022-09-03T09:16:36.746Z,20.98
2022-09-03T09:19:21.056Z,21.11
2022-09-03T09:21:53.559Z,21.03
2022-09-03T09:24:27.913Z,21.29
2022-09-03T09:27:00.336Z,21.37
2022-09-03T09:29:33.311Z,21.49
2022-09-03T09:32:00.291Z,21.57
2022-09-03T09:34:27.320Z,21.55
2022-09-03T09:36:56.134Z,21.72
2022-09-03T09:39:23.764Z,21.83
2022-09-03T09:42:01.750Z,21.92
2022-09-03T09:44:30.075Z,22.01
2022-09-03T09:47:05.732Z,22.18
2022-09-03T09:49:35.238Z,22.41
2022-09-03T09:52:04.839Z,23.23
2022-09-03T09:54:31.659Z,24.06
2022-09-03T09:57:00.299Z,25.05
2022-09-03T09:59:26.961Z,25.83
2022-09-03T10:02:22.185Z,26.71
2022-09-03T10:04:49.970Z,27.30
2022-09-03T10:07:23.968Z,28.00
2022-09-03T10:10:01.679Z,28.73
2022-09-03T10:12:32.573Z,29.33
2022-09-03T10:15:01.957Z,29.45
2022-09-03T10:17:42.154Z,30.26
2022-09-03T10:20:13.915Z,30.67
2022-09-03T10:22:48.369Z,31.23
2022-09-03T10:25:29.046Z,31.58
2022-09-03T10:27:59.912Z,31.66
2022-09-03T10:30:27.015Z,32.16
2022-09-03T10:33:05.386Z,32.63
2022-09-03T10:35:37.931Z,32.87
2022-09-03T10:38:10.613Z,33.02
2022-09-03T10:40:40.205Z,33.18
2022-09-03T10:43:25.973Z,33.15
2022-09-03T10:46:00.288Z,33.28
2022-09-03T10:49:04.948Z,33.39
2022-09-03T10:51:40.889Z,33.84
2022-09-03T10:54:32.210Z,34.04
2022-09-03T10:57:08.285Z,34.29
2022-09-03T10:59:50.138Z,34.40
2022-09-03T11:02:39.785Z,34.51
2022-09-03T11:05:16.081Z,34.90
2022-09-03T11:07:49.061Z,35.20
2022-09-03T11:10:22.056Z,35.37
2022-09-03T11:13:00.163Z,35.22
2022-09-03T11:15:32.479Z,35.37
2022-09-03T11:18:04.627Z,35.16
2022-09-03T11:20:33.783Z,34.85
2022-09-03T11:23:04.616Z,35.34
2022-09-03T11:25:34.809Z,35.53
2022-09-03T11:28:14.302Z,35.43
2022-09-03T11:30:55.938Z,35.26
2022-09-03T11:33:25.130Z,35.29
2022-09-03T11:35:59.113Z,35.39
2022-09-03T11:38:27.436Z,34.99
2022-09-03T11:41:00.351Z,34.74
2022-09-03T11:43:30.156Z,34.92
2022-09-03T11:46:30.454Z,34.99
2022-09-03T11:49:09.631Z,35.45
2022-09-03T11:51:42.217Z,35.33
2022-09-03T11:54:26.115Z,35.30
2022-09-03T11:57:07.718Z,35.33
2022-09-03T11:59:34.557Z,35.47
2022-09-03T12:02:12.035Z,34.72
2022-09-03T12:04:45.964Z,35.06
2022-09-03T12:07:42.435Z,35.13
2022-09-03T12:10:21.246Z,34.99
2022-09-03T12:13:01.324Z,34.90
2022-09-03T12:15:53.038Z,34.52
2022-09-03T12:18:29.472Z,34.57
2022-09-03T12:21:04.421Z,34.50
2022-09-03T12:23:44.452Z,34.77
2022-09-03T12:26:14.363Z,34.54
2022-09-03T12:28:45.534Z,34.69
2022-09-03T12:31:16.723Z,34.91
2022-09-03T12:33:43.681Z,35.07
2022-09-03T12:36:10.409Z,35.04
2022-09-03T12:39:10.029Z,34.86
2022-09-03T12:41:30.457Z,34.47
2022-09-03T12:43:59.766Z,34.86
2022-09-03T12:46:32.305Z,34.46
2022-09-03T12:52:05.840Z,34.55
2022-09-03T12:54:37.723Z,34.95
2022-09-03T12:57:05.161Z,34.82
2022-09-03T12:59:36.765Z,34.88
2022-09-03T13:02:12.761Z,34.51
2022-09-03T13:04:41.542Z,33.98
2022-09-03T13:07:13.987Z,33.53
2022-09-03T13:09:42.743Z,33.01
2022-09-03T13:12:22.090Z,32.17
2022-09-03T13:14:52.705Z,31.68
2022-09-03T13:17:40.831Z,31.11
2022-09-03T13:20:29.627Z,31.18
2022-09-03T13:23:10.529Z,31.26
2022-09-03T13:25:47.579Z,31.25
2022-09-03T13:28:31.972Z,31.37
2022-09-03T13:31:06.349Z,31.39
2022-09-03T13:33:38.633Z,31.72
2022-09-03T13:36:10.923Z,31.96
2022-09-03T13:38:43.185Z,32.27
2022-09-03T13:41:14.529Z,32.63
2022-09-03T13:43:45.567Z,32.85
2022-09-03T13:46:18.106Z,33.02
2022-09-03T13:48:45.696Z,33.36
2022-09-03T13:51:18.606Z,33.54
2022-09-03T13:53:57.921Z,33.58
2022-09-03T13:56:36.259Z,33.68
2022-09-03T13:59:09.667Z,33.65
2022-09-03T14:01:55.894Z,33.36
2022-09-03T14:04:30.247Z,32.98
2022-09-03T14:07:03.640Z,32.77
2022-09-03T14:09:37.942Z,32.60
2022-09-03T14:12:14.274Z,32.13
2022-09-03T14:14:53.078Z,32.05
2022-09-03T14:17:31.221Z,31.90
2022-09-03T14:20:03.020Z,31.67
2022-09-03T14:22:44.140Z,31.38
2022-09-03T14:25:16.230Z,31.24
2022-09-03T14:27:44.632Z,30.89
2022-09-03T14:30:24.967Z,30.82
2022-09-03T14:32:57.870Z,30.82
2022-09-03T14:35:45.477Z,30.72
2022-09-03T14:38:56.436Z,30.91
2022-09-03T14:41:45.851Z,30.77
2022-09-03T14:44:34.419Z,30.43
2022-09-03T14:47:15.478Z,30.26
2022-09-03T14:50:03.206Z,30.08
2022-09-03T14:52:53.418Z,30.10
2022-09-03T14:55:31.231Z,30.48
2022-09-03T14:58:17.070Z,30.97
2022-09-03T15:00:57.987Z,31.42
2022-09-03T15:03:44.299Z,31.84
2022-09-03T15:06:20.433Z,32.42
2022-09-03T15:09:17.732Z,32.88
2022-09-03T15:11:50.570Z,33.27
2022-09-03T15:14:24.634Z,33.16
2022-09-03T15:16:59.893Z,32.76
2022-09-03T15:19:48.522Z,32.31
2022-09-03T15:22:27.753Z,31.96
2022-09-03T15:25:03.844Z,31.92
2022-09-03T15:27:46.425Z,31.74
2022-09-03T15:30:16.221Z,32.13
2022-09-03T15:32:58.096Z,32.47
2022-09-03T15:35:40.820Z,32.83
2022-09-03T15:38:12.892Z,33.05
2022-09-03T15:40:48.181Z,33.43
2022-09-03T15:43:19.508Z,33.56
2022-09-03T15:45:52.953Z,33.58
2022-09-03T15:48:33.616Z,33.34
2022-09-03T15:51:11.332Z,33.39
2022-09-03T15:53:45.864Z,33.57
2022-09-03T15:56:20.579Z,33.64
2022-09-03T15:59:01.495Z,33.43
2022-09-03T16:01:39.150Z,33.41
2022-09-03T16:04:22.640Z,33.39
2022-09-03T16:06:57.231Z,33.32
2022-09-03T16:09:50.283Z,32.94
2022-09-03T16:12:36.013Z,32.81
2022-09-03T16:15:10.315Z,32.22
2022-09-03T16:17:46.965Z,31.73
2022-09-03T16:20:20.246Z,31.37
2022-09-03T16:22:52.216Z,30.83
2022-09-03T16:25:24.662Z,30.68
2022-09-03T16:28:01.788Z,30.31
2022-09-03T16:30:48.510Z,29.92
2022-09-03T16:33:26.849Z,29.36
2022-09-03T16:36:02.229Z,29.05
2022-09-03T16:38:44.130Z,28.99
2022-09-03T16:41:23.088Z,28.80
2022-09-03T16:44:02.668Z,28.65
2022-09-03T16:46:40.637Z,28.46
2022-09-03T16:49:19.693Z,28.26
2022-09-03T16:51:55.327Z,28.20
2022-09-03T16:54:43.479Z,28.07
2022-09-03T16:57:23.677Z,28.04
2022-09-03T17:00:05.471Z,27.80
2022-09-03T17:03:10.840Z,27.79
2022-09-03T17:06:00.854Z,27.44
2022-09-03T17:08:38.989Z,27.13
2022-09-03T17:11:18.900Z,27.15
2022-09-03T17:13:59.149Z,27.05
2022-09-03T17:16:40.034Z,26.83
2022-09-03T17:19:14.556Z,26.86
2022-09-03T17:21:48.826Z,26.81
2022-09-03T17:24:29.535Z,26.74
2022-09-03T17:27:18.094Z,26.60
2022-09-03T17:30:12.144Z,26.44
2022-09-03T17:33:20.524Z,26.54
2022-09-03T17:35:55.461Z,26.47
2022-09-03T17:38:39.604Z,26.40
2022-09-03T17:41:22.115Z,26.30
2022-09-03T17:43:56.908Z,26.15
2022-09-03T17:46:32.840Z,26.06
2022-09-03T17:49:01.146Z,26.01
2022-09-03T17:51:35.945Z,25.70
2022-09-03T17:54:08.178Z,25.85
2022-09-03T17:56:46.792Z,25.74
2022-09-03T17:59:22.451Z,25.59
2022-09-03T18:01:57.503Z,25.27
2022-09-03T18:04:34.200Z,25.40
2022-09-03T18:07:10.887Z,25.27
2022-09-03T18:09:45.176Z,25.00
2022-09-03T18:12:19.388Z,25.03
2022-09-03T18:14:52.767Z,25.00
2022-09-03T18:17:28.817Z,24.91
2022-09-03T18:20:03.102Z,24.82
2022-09-03T18:22:37.752Z,24.61
2022-09-03T18:25:05.747Z,24.61
2022-09-03T18:27:38.970Z,24.41
2022-09-03T18:30:08.686Z,24.34
2022-09-03T18:32:37.278Z,24.32
2022-09-03T18:35:04.404Z,24.16
2022-09-03T18:37:31.934Z,24.14
2022-09-03T18:39:58.679Z,24.03
2022-09-03T18:42:31.798Z,24.03
2022-09-03T18:45:20.842Z,23.93
2022-09-03T18:48:06.003Z,23.82
2022-09-03T18:50:46.929Z,23.78
2022-09-03T18:53:29.581Z,23.70
2022-09-03T18:56:05.103Z,23.65
2022-09-03T18:58:42.532Z,23.61
2022-09-03T19:01:27.176Z,23.50
2022-09-03T19:04:06.698Z,23.43
2022-09-03T19:06:42.793Z,23.35
2022-09-03T19:09:21.431Z,22.72
2022-09-03T19:12:04.372Z,23.02
2022-09-03T19:14:42.796Z,23.29
2022-09-03T19:17:26.450Z,22.78
2022-09-03T19:20:02.966Z,23.18
2022-09-03T19:22:34.398Z,23.14
2022-09-03T19:25:05.687Z,23.11
2022-09-03T19:27:55.741Z,22.96
2022-09-03T19:30:44.845Z,22.93
2022-09-03T19:33:37.828Z,22.39
2022-09-03T19:36:16.922Z,22.83
2022-09-03T19:38:58.425Z,22.88
2022-09-03T19:41:32.440Z,22.46
2022-09-03T19:44:34.147Z,22.30
2022-09-03T19:47:02.463Z,22.27
2022-09-03T19:49:43.874Z,22.14
2022-09-03T19:52:19.734Z,22.57
2022-09-03T19:54:55.884Z,22.04
2022-09-03T19:57:24.086Z,22.22
2022-09-03T19:59:54.219Z,22.54
2022-09-03T20:02:21.266Z,22.48
2022-09-03T20:04:58.124Z,21.77
2022-09-03T20:07:25.369Z,22.40
2022-09-03T20:09:53.942Z,22.36
2022-09-03T20:12:25.251Z,22.22
2022-09-03T20:14:51.985Z,22.17
2022-09-03T20:17:35.184Z,21.39
2022-09-03T20:20:15.321Z,21.51
2022-09-03T20:22:51.075Z,21.83
2022-09-03T20:25:47.609Z,21.92
2022-09-03T20:28:30.234Z,21.60
2022-09-03T20:31:01.691Z,20.85
2022-09-03T20:33:46.410Z,21.41
2022-09-03T20:36:29.666Z,21.86
2022-09-03T20:39:22.509Z,21.63
2022-09-03T20:42:07.403Z,20.85
2022-09-03T20:44:51.071Z,21.71
2022-09-03T20:47:43.846Z,21.66
2022-09-03T20:50:25.034Z,21.58
2022-09-03T20:53:03.229Z,21.52
2022-09-03T20:55:35.421Z,20.82
2022-09-03T20:58:09.690Z,21.27
2022-09-03T21:00:48.290Z,21.34
2022-09-03T21:03:18.373Z,21.14
2022-09-03T21:05:58.221Z,21.21
2022-09-03T21:08:48.346Z,21.21
2022-09-03T21:11:21.219Z,20.72
2022-09-03T21:13:57.477Z,21.07
2022-09-03T21:16:31.047Z,20.90
2022-09-03T21:19:07.004Z,20.85
2022-09-03T21:21:48.862Z,20.19
2022-09-03T21:24:32.717Z,20.63
2022-09-03T21:27:04.846Z,20.96
2022-09-03T21:29:37.657Z,20.92
2022-09-03T21:32:09.360Z,20.75
2022-09-03T21:34:42.172Z,20.83
2022-09-03T21:37:12.587Z,20.56
2022-09-03T21:39:48.475Z,20.65
2022-09-03T21:42:24.569Z,20.50
2022-09-03T21:44:57.634Z,20.10
2022-09-03T21:47:28.212Z,20.19
2022-09-03T21:50:06.415Z,20.48
2022-09-03T21:52:44.815Z,20.19
2022-09-03T21:55:22.682Z,20.17
2022-09-03T21:58:04.665Z,20.45
2022-09-03T22:00:31.655Z,20.47
2022-09-03T22:02:59.543Z,20.41
2022-09-03T22:05:31.252Z,19.93
2022-09-03T22:08:12.152Z,19.74
2022-09-03T22:10:51.266Z,20.24
2022-09-03T22:13:28.353Z,19.52
2022-09-03T22:16:01.985Z,20.23
2022-09-03T22:18:30.285Z,20.15
2022-09-03T22:21:09.048Z,19.91
2022-09-03T22:23:47.074Z,20.16
2022-09-03T22:26:27.047Z,20.07
2022-09-03T22:29:05.682Z,20.05
2022-09-03T22:31:46.135Z,19.99
2022-09-03T22:34:26.160Z,19.93
2022-09-03T22:37:00.958Z,19.77
2022-09-03T22:39:33.658Z,19.89
2022-09-03T22:45:20.864Z,19.16
2022-09-03T22:47:59.112Z,19.47
2022-09-03T22:50:34.163Z,18.86
2022-09-03T22:53:14.919Z,19.76
2022-09-03T22:55:49.181Z,19.02
2022-09-03T22:58:19.668Z,19.71
2022-09-03T23:01:00.200Z,19.59
2022-09-03T23:03:40.279Z,19.53
2022-09-03T23:06:13.021Z,19.53
2022-09-03T23:08:47.550Z,19.53
2022-09-03T23:11:22.657Z,19.57
2022-09-03T23:13:54.869Z,19.54
2022-09-03T23:16:31.820Z,19.51
2022-09-03T23:19:03.246Z,19.38
2022-09-03T23:21:34.237Z,19.34
2022-09-03T23:24:07.565Z,19.34
2022-09-03T23:26:39.038Z,19.33
2022-09-03T23:29:12.411Z,19.19
2022-09-03T23:31:42.875Z,19.27
2022-09-03T23:34:11.761Z,19.11
2022-09-03T23:37:10.337Z,18.57
2022-09-03T23:40:16.411Z,19.17
2022-09-03T23:43:01.642Z,19.14
2022-09-03T23:45:36.519Z,19.08
2022-09-03T23:48:18.391Z,18.68
2022-09-03T23:50:52.625Z,19.03
2022-09-03T23:53:44.349Z,19.03
2022-09-03T23:56:32.183Z,19.00
2022-09-03T23:59:12.225Z,19.01
